Time;durP1;ratioP1;P1;durP2;ratioP2;P2;SDS_P1;SDS_P2;PMS_P1;PMS_P2;Temp;Humidity;BMP_temperature;BMP_pressure;BME280_temperature;BME280_humidity;BME280_pressure;Samples;Min_cycle;Max_cycle;Signal;HPM_P1;HPM_P2
2021/03/27 00:00:32;;;;;;;62.85;29.58;;;8.40;99.90;;;;;;4969397;28;20023;-75
2021/03/27 00:03:08;;;;;;;63.95;29.48;;;8.40;99.90;;;;;;4981344;28;20042;-75
2021/03/27 00:05:46;;;;;;;66.03;29.65;;;8.40;99.90;;;;;;4978311;28;20041;-75
2021/03/27 00:08:19;;;;;;;59.00;29.02;;;8.40;99.90;;;;;;4983088;28;20042;-75
2021/03/27 00:11:01;;;;;;;64.13;29.02;;;8.40;99.90;;;;;;4984796;28;20035;-75
2021/03/27 00:13:41;;;;;;;59.03;29.30;;;8.40;99.90;;;;;;4978980;28;20026;-75
2021/03/27 00:16:45;;;;;;;56.35;27.73;;;8.50;99.90;;;;;;4978074;28;20030;-75
2021/03/27 00:19:22;;;;;;;57.60;27.58;;;8.50;99.90;;;;;;4950396;28;20030;-75
2021/03/27 00:21:55;;;;;;;60.80;28.15;;;8.50;99.90;;;;;;4962244;28;20030;-74
2021/03/27 00:24:24;;;;;;;56.80;27.25;;;8.50;99.90;;;;;;4979833;28;20045;-75
2021/03/27 00:27:18;;;;;;;56.92;28.10;;;8.50;99.90;;;;;;4979427;28;20493;-75
2021/03/27 00:29:52;;;;;;;55.53;26.50;;;8.50;99.90;;;;;;4978646;28;20026;-75
2021/03/27 00:32:32;;;;;;;64.60;28.65;;;8.50;99.90;;;;;;4982135;28;20039;-75
2021/03/27 00:35:06;;;;;;;54.22;26.17;;;8.50;99.90;;;;;;4984050;28;20070;-77
2021/03/27 00:37:32;;;;;;;51.97;25.50;;;8.50;99.90;;;;;;4985131;28;20389;-75
2021/03/27 00:40:05;;;;;;;51.03;24.75;;;8.50;99.90;;;;;;4984792;28;20034;-76
2021/03/27 00:42:37;;;;;;;55.38;26.92;;;8.50;99.90;;;;;;4986920;28;20034;-74
2021/03/27 00:45:13;;;;;;;56.75;26.13;;;8.40;99.90;;;;;;4983162;28;20034;-75
2021/03/27 00:47:41;;;;;;;60.15;27.50;;;8.40;99.90;;;;;;4967463;28;20081;-76
2021/03/27 00:50:22;;;;;;;50.67;25.85;;;8.40;99.90;;;;;;4974968;28;20276;-74
2021/03/27 00:52:51;;;;;;;55.17;25.43;;;8.40;99.90;;;;;;4972379;28;20481;-76
2021/03/27 00:55:35;;;;;;;56.72;27.65;;;8.40;99.90;;;;;;4971709;28;20038;-77
2021/03/27 00:58:13;;;;;;;58.15;27.25;;;8.40;99.90;;;;;;4977528;28;20037;-77
2021/03/27 01:00:44;;;;;;;54.13;26.25;;;8.40;99.90;;;;;;4979347;28;20038;-74
2021/03/27 01:03:30;;;;;;;53.65;25.40;;;8.40;99.90;;;;;;4980446;28;20043;-76
2021/03/27 01:05:56;;;;;;;56.75;26.65;;;8.40;99.90;;;;;;4983291;28;20041;-74
2021/03/27 01:08:24;;;;;;;62.25;26.10;;;8.40;99.90;;;;;;4963185;28;20022;-76
2021/03/27 01:11:05;;;;;;;51.55;25.75;;;8.50;99.90;;;;;;4983926;28;20539;-76
2021/03/27 01:13:41;;;;;;;50.53;24.23;;;8.60;99.90;;;;;;4980553;28;20038;-76
2021/03/27 01:16:12;;;;;;;49.92;24.17;;;8.60;99.90;;;;;;4970165;28;20027;-76
2021/03/27 01:18:45;;;;;;;53.45;23.70;;;8.70;99.90;;;;;;4986630;28;20038;-76
2021/03/27 01:21:23;;;;;;;48.15;22.27;;;8.70;99.90;;;;;;4983416;28;20141;-76
2021/03/27 01:23:59;;;;;;;48.22;24.58;;;8.80;99.90;;;;;;4983742;28;20080;-76
2021/03/27 01:26:29;;;;;;;50.08;24.17;;;8.90;99.90;;;;;;4978545;28;20559;-76
2021/03/27 01:29:03;;;;;;;52.05;23.52;;;9.00;99.90;;;;;;4976833;28;20027;-76
2021/03/27 01:31:42;;;;;;;45.65;23.00;;;9.10;99.90;;;;;;4969552;28;20064;-76
2021/03/27 01:34:22;;;;;;;52.00;24.70;;;9.10;99.90;;;;;;4973442;28;20109;-76
2021/03/27 01:37:05;;;;;;;44.45;22.58;;;9.10;99.90;;;;;;4976322;28;20030;-76
2021/03/27 01:39:45;;;;;;;48.67;24.00;;;9.10;99.90;;;;;;4977949;28;20520;-76
2021/03/27 01:42:45;;;;;;;46.25;23.10;;;9.10;99.90;;;;;;4964694;28;20617;-76
2021/03/27 01:45:43;;;;;;;48.75;22.52;;;9.00;99.90;;;;;;4972315;28;20042;-76
2021/03/27 01:48:21;;;;;;;42.40;21.95;;;9.00;99.90;;;;;;4983711;28;20031;-76
2021/03/27 01:50:52;;;;;;;47.38;22.95;;;8.90;99.90;;;;;;4985331;28;20099;-76
2021/03/27 01:53:20;;;;;;;;;;;8.80;99.90;;;;;;4982202;28;20027;-76
2021/03/27 01:56:16;;;;;;;54.35;22.23;;;8.80;99.90;;;;;;4974769;28;20009;-76
2021/03/27 01:59:11;;;;;;;48.63;22.30;;;8.80;99.90;;;;;;4972393;28;20441;-76
2021/03/27 02:02:09;;;;;;;43.05;21.10;;;8.70;99.90;;;;;;4981198;28;20428;-76
2021/03/27 02:04:41;;;;;;;41.95;21.63;;;8.70;99.90;;;;;;4984495;28;20429;-76
2021/03/27 02:07:38;;;;;;;42.13;21.30;;;8.70;99.90;;;;;;4983957;28;20109;-76
2021/03/27 02:10:10;;;;;;;38.33;20.45;;;8.60;99.90;;;;;;4973508;28;20033;-76
2021/03/27 02:12:53;;;;;;;47.30;22.52;;;8.70;99.90;;;;;;4978501;28;21726;-76
2021/03/27 02:15:36;;;;;;;49.13;21.58;;;8.70;99.90;;;;;;4972718;28;20506;-76
2021/03/27 02:18:19;;;;;;;39.92;20.92;;;8.80;99.90;;;;;;4979051;28;20101;-76
2021/03/27 02:21:06;;;;;;;42.53;21.52;;;8.80;99.90;;;;;;4973186;28;20058;-76
2021/03/27 02:23:53;;;;;;;44.92;21.00;;;8.70;99.90;;;;;;4974448;28;20030;-75
2021/03/27 02:26:33;;;;;;;38.90;19.38;;;8.80;99.90;;;;;;4986151;28;20117;-76
2021/03/27 02:29:04;;;;;;;47.28;20.02;;;8.80;99.90;;;;;;4983304;28;20027;-76
2021/03/27 02:31:40;;;;;;;;;;;8.80;99.90;;;;;;4979166;28;20026;-76
2021/03/27 02:34:33;;;;;;;45.90;20.70;;;8.80;99.90;;;;;;4969019;28;20006;-76
2021/03/27 02:37:02;;;;;;;40.05;19.73;;;8.90;99.90;;;;;;4986845;28;20063;-76
2021/03/27 02:39:58;;;;;;;41.65;19.73;;;8.90;99.90;;;;;;4989376;28;20030;-76
2021/03/27 02:42:37;;;;;;;42.72;19.88;;;9.00;99.90;;;;;;4984410;28;20072;-76
2021/03/27 02:45:08;;;;;;;38.13;18.58;;;9.00;99.90;;;;;;4978631;28;20038;-74
2021/03/27 02:47:48;;;;;;;39.15;18.17;;;9.10;99.90;;;;;;4966932;28;20019;-76
2021/03/27 02:50:49;;;;;;;40.08;19.50;;;9.10;99.90;;;;;;4981101;28;20038;-77
2021/03/27 02:53:26;;;;;;;34.67;18.42;;;9.20;99.90;;;;;;4981984;28;20026;-76
2021/03/27 02:56:28;;;;;;;37.03;18.73;;;9.30;99.90;;;;;;4984398;28;20035;-76
2021/03/27 02:59:13;;;;;;;36.28;18.05;;;9.30;99.90;;;;;;4978609;28;20054;-76
2021/03/27 03:01:48;;;;;;;41.70;18.88;;;9.40;99.90;;;;;;4980645;28;20022;-74
2021/03/27 03:04:24;;;;;;;34.78;18.17;;;9.40;99.90;;;;;;4982997;28;20057;-75
2021/03/27 03:07:00;;;;;;;35.08;18.20;;;9.40;99.90;;;;;;4979668;28;20389;-76
2021/03/27 03:09:44;;;;;;;32.25;17.30;;;9.50;99.90;;;;;;4979091;28;20018;-77
2021/03/27 03:12:19;;;;;;;36.33;17.88;;;9.50;99.90;;;;;;4955694;28;21050;-75
2021/03/27 03:15:03;;;;;;;32.08;16.73;;;9.50;99.90;;;;;;4976698;28;20031;-75
2021/03/27 03:17:42;;;;;;;34.67;17.55;;;9.60;99.90;;;;;;4995718;28;20029;-75
2021/03/27 03:20:37;;;;;;;34.47;16.95;;;9.70;99.90;;;;;;4980991;28;20031;-75
2021/03/27 03:23:09;;;;;;;37.45;17.35;;;9.80;99.90;;;;;;4959183;28;20038;-75
2021/03/27 03:25:54;;;;;;;35.25;17.27;;;9.80;99.90;;;;;;4980659;28;20037;-74
2021/03/27 03:28:24;;;;;;;35.42;16.95;;;9.80;99.90;;;;;;4967115;28;20226;-75
2021/03/27 03:31:04;;;;;;;39.03;17.90;;;9.80;99.90;;;;;;4981909;28;20135;-75
2021/03/27 03:34:02;;;;;;;31.42;17.30;;;9.80;99.90;;;;;;4976569;28;20042;-75
2021/03/27 03:36:55;;;;;;;31.58;16.10;;;9.80;99.90;;;;;;4982609;28;20042;-74
2021/03/27 03:39:45;;;;;;;33.88;16.80;;;9.90;99.90;;;;;;4979945;28;20026;-75
2021/03/27 03:42:43;;;;;;;34.13;17.20;;;9.90;99.90;;;;;;4975692;28;20056;-75
2021/03/27 03:45:15;;;;;;;35.97;16.27;;;9.90;99.90;;;;;;4973542;28;20031;-75
2021/03/27 03:47:51;;;;;;;;;;;9.90;99.90;;;;;;4981506;28;20077;-75
2021/03/27 03:50:45;;;;;;;35.13;17.33;;;9.90;99.90;;;;;;4959204;28;20005;-75
2021/03/27 03:53:35;;;;;;;33.22;17.20;;;9.90;99.90;;;;;;4966456;28;20033;-75
2021/03/27 03:56:18;;;;;;;34.72;16.80;;;9.90;99.90;;;;;;4979677;28;20173;-75
2021/03/27 03:59:31;;;;;;;32.90;16.67;;;9.90;99.90;;;;;;4977942;28;20039;-75
2021/03/27 04:02:25;;;;;;;33.60;16.73;;;9.90;99.90;;;;;;4977928;28;20037;-75
2021/03/27 04:05:35;;;;;;;39.53;17.50;;;9.90;99.90;;;;;;4981065;28;20101;-74
2021/03/27 04:08:09;;;;;;;35.75;16.10;;;9.90;99.90;;;;;;4965618;28;20026;-75
2021/03/27 04:10:36;;;;;;;36.97;17.63;;;9.90;99.90;;;;;;4979416;28;20026;-75
2021/03/27 04:13:13;;;;;;;35.35;17.15;;;9.90;99.90;;;;;;4972046;28;20147;-74
2021/03/27 04:16:05;;;;;;;35.80;17.00;;;9.90;99.90;;;;;;4976253;28;20026;-74
2021/03/27 04:18:38;;;;;;;33.63;17.63;;;9.90;99.90;;;;;;4975812;28;20088;-75
2021/03/27 04:21:24;;;;;;;34.53;16.27;;;9.90;99.90;;;;;;4982584;28;20073;-74
2021/03/27 04:24:06;;;;;;;36.67;18.05;;;9.90;99.90;;;;;;4979222;28;20109;-74
2021/03/27 04:26:48;;;;;;;33.28;16.83;;;9.90;99.90;;;;;;4984958;28;20034;-75
2021/03/27 04:29:29;;;;;;;31.00;16.13;;;9.90;99.90;;;;;;4973482;28;20113;-74
2021/03/27 04:32:30;;;;;;;31.55;15.93;;;9.90;99.90;;;;;;4980744;28;20026;-74
2021/03/27 04:35:21;;;;;;;;;;;9.90;99.90;;;;;;4971508;28;20037;-74
2021/03/27 04:38:08;;;;;;;34.05;16.70;;;9.90;99.90;;;;;;4978737;28;19917;-75
2021/03/27 04:40:43;;;;;;;33.40;16.48;;;9.90;99.90;;;;;;4980410;28;20031;-75
2021/03/27 04:43:33;;;;;;;33.63;16.45;;;9.90;99.90;;;;;;4964339;28;20516;-75
2021/03/27 04:46:19;;;;;;;32.20;16.13;;;9.90;99.90;;;;;;4975504;28;20034;-75
2021/03/27 04:49:08;;;;;;;34.80;15.88;;;9.80;99.90;;;;;;4980148;28;20026;-75
2021/03/27 04:51:49;;;;;;;33.13;16.35;;;9.80;99.90;;;;;;4977719;28;20022;-75
2021/03/27 04:54:30;;;;;;;33.22;17.05;;;9.80;99.90;;;;;;4965179;28;20122;-74
2021/03/27 04:56:59;;;;;;;;;;;9.70;99.90;;;;;;4976155;28;20050;-74
2021/03/27 04:59:53;;;;;;;31.15;15.85;;;9.70;99.90;;;;;;4970504;28;20415;-75
2021/03/27 05:02:35;;;;;;;35.92;16.38;;;9.70;99.90;;;;;;4978738;28;20524;-76
2021/03/27 05:05:11;;;;;;;30.50;15.70;;;9.70;99.90;;;;;;4979755;28;20174;-76
2021/03/27 05:08:34;;;;;;;30.40;14.82;;;9.80;99.90;;;;;;4977925;28;20037;-75
2021/03/27 05:11:17;;;;;;;28.77;15.05;;;9.80;99.90;;;;;;4874415;29;20917;-74
2021/03/27 05:14:13;;;;;;;31.20;15.18;;;9.90;99.90;;;;;;4878591;29;20025;-77
2021/03/27 05:16:47;;;;;;;35.88;15.32;;;9.90;99.90;;;;;;4964514;28;20046;-76
2021/03/27 05:19:38;;;;;;;31.65;15.13;;;9.90;99.90;;;;;;4974140;28;20529;-76
2021/03/27 05:22:15;;;;;;;36.53;15.27;;;10.00;99.90;;;;;;4979168;28;20588;-76
2021/03/27 05:25:04;;;;;;;30.25;13.75;;;10.00;99.90;;;;;;4979300;28;20092;-76
2021/03/27 05:27:57;;;;;;;32.20;14.15;;;10.00;99.30;;;;;;4953062;28;20090;-76
2021/03/27 05:30:30;;;;;;;26.70;14.20;;;10.10;99.10;;;;;;4968296;28;20018;-76
2021/03/27 05:33:07;;;;;;;28.90;14.40;;;10.20;98.90;;;;;;4979559;28;20137;-76
2021/03/27 05:35:50;;;;;;;25.17;13.07;;;10.20;98.60;;;;;;4979704;28;20037;-76
2021/03/27 05:38:42;;;;;;;28.95;14.38;;;10.30;98.20;;;;;;4980085;28;20400;-76
2021/03/27 05:41:38;;;;;;;28.73;13.48;;;10.40;98.20;;;;;;4979348;28;20037;-76
2021/03/27 05:44:33;;;;;;;28.77;14.07;;;10.40;97.80;;;;;;4964280;28;20046;-76
2021/03/27 05:47:14;;;;;;;30.70;13.85;;;10.50;97.40;;;;;;4978345;28;20181;-76
2021/03/27 05:50:14;;;;;;;30.42;13.73;;;10.60;97.10;;;;;;4974394;28;20023;-76
2021/03/27 05:52:55;;;;;;;28.25;14.15;;;10.60;96.90;;;;;;4983016;28;20030;-77
2021/03/27 05:55:34;;;;;;;22.85;13.38;;;10.60;96.70;;;;;;4981915;28;20092;-76
2021/03/27 05:58:24;;;;;;;26.13;13.07;;;10.70;96.60;;;;;;4983610;28;20037;-76
2021/03/27 06:00:56;;;;;;;27.50;13.52;;;10.70;96.80;;;;;;4971972;28;20057;-76
2021/03/27 06:03:46;;;;;;;24.40;12.27;;;10.70;96.40;;;;;;4977735;28;20562;-76
2021/03/27 06:06:39;;;;;;;26.92;12.48;;;10.70;96.00;;;;;;4970942;28;20034;-76
2021/03/27 06:09:31;;;;;;;33.25;12.23;;;10.70;96.00;;;;;;4982615;28;20042;-76
2021/03/27 06:12:10;;;;;;;23.80;12.30;;;10.80;95.70;;;;;;4978517;28;20034;-76
2021/03/27 06:14:56;;;;;;;26.15;12.48;;;10.80;95.70;;;;;;4967461;28;20027;-76
2021/03/27 06:17:30;;;;;;;23.52;11.32;;;10.80;96.00;;;;;;4986411;28;20125;-76
2021/03/27 06:20:37;;;;;;;23.15;12.93;;;10.80;95.80;;;;;;4962549;28;20034;-76
2021/03/27 06:23:17;;;;;;;20.48;11.45;;;10.80;95.70;;;;;;4944509;28;20034;-76
2021/03/27 06:25:54;;;;;;;26.02;12.27;;;10.80;95.80;;;;;;4978741;28;20104;-76
2021/03/27 06:29:13;;;;;;;20.67;11.77;;;10.80;95.80;;;;;;4970589;28;20023;-76
2021/03/27 06:32:21;;;;;;;26.10;11.90;;;10.80;95.70;;;;;;4884251;29;20112;-76
2021/03/27 06:35:36;;;;;;;19.70;10.95;;;10.80;95.50;;;;;;4983365;28;20481;-76
2021/03/27 06:38:43;;;;;;;21.15;11.35;;;10.80;95.60;;;;;;4981405;28;20104;-76
2021/03/27 06:41:30;;;;;;;24.80;11.77;;;10.90;95.10;;;;;;4982188;28;20473;-76
2021/03/27 06:44:07;;;;;;;18.73;11.00;;;11.00;95.10;;;;;;4978708;28;20038;-76
2021/03/27 06:46:51;;;;;;;23.90;12.13;;;11.10;94.70;;;;;;4982453;28;20492;-76
2021/03/27 06:49:45;;;;;;;17.90;10.35;;;11.40;94.20;;;;;;4973241;28;20027;-76
2021/03/27 06:52:20;;;;;;;18.05;9.82;;;11.50;93.80;;;;;;4975241;28;20037;-76
2021/03/27 06:55:29;;;;;;;17.00;9.98;;;11.60;93.50;;;;;;4963534;28;20035;-76
2021/03/27 06:58:39;;;;;;;17.63;10.20;;;11.60;92.90;;;;;;4966369;28;20602;-76
2021/03/27 07:01:18;;;;;;;20.80;10.13;;;11.70;92.50;;;;;;4975440;28;20030;-76
2021/03/27 07:03:47;;;;;;;18.65;9.80;;;11.70;92.60;;;;;;4967833;28;20036;-76
2021/03/27 07:06:39;;;;;;;21.27;9.18;;;11.80;92.40;;;;;;4972688;28;20549;-76
2021/03/27 07:09:42;;;;;;;20.10;10.18;;;11.80;92.20;;;;;;4972304;28;20108;-76
2021/03/27 07:12:30;;;;;;;19.45;10.30;;;11.90;91.80;;;;;;4986727;28;20029;-75
2021/03/27 07:15:16;;;;;;;15.82;8.70;;;11.90;91.80;;;;;;4986804;28;20039;-76
2021/03/27 07:18:13;;;;;;;16.20;9.70;;;11.90;91.60;;;;;;4984238;28;20101;-76
2021/03/27 07:21:18;;;;;;;63.72;21.65;;;11.90;91.70;;;;;;4947830;28;20085;-76
2021/03/27 07:24:17;;;;;;;20.58;10.27;;;11.80;92.00;;;;;;4956467;28;20034;-75
2021/03/27 07:27:13;;;;;;;23.00;10.80;;;11.80;92.60;;;;;;4982549;28;20144;-75
2021/03/27 07:30:03;;;;;;;20.48;9.63;;;11.70;97.10;;;;;;4987678;28;20022;-75
2021/03/27 07:32:47;;;;;;;18.20;9.45;;;11.50;99.90;;;;;;4983878;28;20061;-75
2021/03/27 07:35:38;;;;;;;19.60;9.10;;;11.20;99.90;;;;;;4985929;28;20113;-75
2021/03/27 07:38:25;;;;;;;16.30;8.55;;;10.80;99.90;;;;;;4973476;28;20025;-75
2021/03/27 07:41:17;;;;;;;14.27;8.45;;;10.70;99.90;;;;;;4988442;28;20026;-75
2021/03/27 07:44:02;;;;;;;18.98;8.70;;;10.50;99.90;;;;;;4969465;28;20026;-76
2021/03/27 07:46:46;;;;;;;16.15;8.18;;;10.40;99.90;;;;;;4988331;28;20030;-76
2021/03/27 07:49:29;;;;;;;16.77;8.73;;;10.30;99.90;;;;;;4981442;28;20118;-75
2021/03/27 07:52:23;;;;;;;14.45;8.65;;;10.20;99.90;;;;;;4968858;28;20030;-75
2021/03/27 07:55:35;;;;;;;16.30;7.80;;;10.20;99.90;;;;;;4976631;28;20543;-75
2021/03/27 07:58:23;;;;;;;14.80;7.88;;;10.20;99.90;;;;;;4973030;28;20830;-75
2021/03/27 08:01:41;;;;;;;17.88;9.13;;;10.20;99.90;;;;;;4982316;28;20052;-75
2021/03/27 08:04:36;;;;;;;15.52;9.13;;;10.20;99.90;;;;;;4963188;28;20133;-75
2021/03/27 08:07:33;;;;;;;19.40;9.02;;;10.20;99.90;;;;;;4984324;28;20026;-76
2021/03/27 08:10:17;;;;;;;27.15;9.57;;;10.20;99.90;;;;;;4977019;28;20172;-76
2021/03/27 08:13:07;;;;;;;14.60;6.70;;;10.10;99.90;;;;;;4974470;28;20026;-76
2021/03/27 08:15:48;;;;;;;6.68;4.35;;;9.90;99.90;;;;;;4982279;28;20038;-75
2021/03/27 08:18:48;;;;;;;7.28;4.57;;;9.80;99.90;;;;;;4970764;28;20030;-76
2021/03/27 08:21:25;;;;;;;10.05;4.13;;;9.70;99.90;;;;;;4975954;28;20030;-75
2021/03/27 08:24:19;;;;;;;3.83;2.10;;;9.70;99.90;;;;;;4985903;28;20037;-75
2021/03/27 08:27:26;;;;;;;5.97;1.40;;;9.70;99.90;;;;;;4971889;28;20035;-75
2021/03/27 08:30:42;;;;;;;1.38;1.20;;;9.50;99.90;;;;;;4970380;28;20114;-75
2021/03/27 08:33:54;;;;;;;2.67;1.70;;;9.30;99.90;;;;;;4892898;29;20043;-75
2021/03/27 08:36:56;;;;;;;1.20;1.10;;;9.30;99.90;;;;;;4891551;29;20021;-75
2021/03/27 08:39:50;;;;;;;1.35;1.00;;;9.10;99.90;;;;;;4983805;28;20030;-75
2021/03/27 08:42:46;;;;;;;2.25;1.65;;;9.10;99.90;;;;;;4984824;28;20030;-75
2021/03/27 08:45:24;;;;;;;2.03;1.30;;;9.10;99.90;;;;;;4980645;28;20027;-76
2021/03/27 08:47:54;;;;;;;1.83;1.30;;;9.00;99.90;;;;;;4971776;28;20485;-75
2021/03/27 08:50:54;;;;;;;1.58;1.40;;;8.80;99.90;;;;;;4982306;28;21058;-75
2021/03/27 08:54:01;;;;;;;1.52;1.27;;;8.80;99.90;;;;;;4982959;28;20026;-75
2021/03/27 08:57:06;;;;;;;1.85;1.27;;;8.50;99.90;;;;;;4983037;28;20034;-75
2021/03/27 09:00:08;;;;;;;1.90;1.20;;;8.50;99.90;;;;;;4975091;28;20078;-75
2021/03/27 09:03:01;;;;;;;1.42;1.02;;;8.50;99.90;;;;;;4946053;28;20042;-75
2021/03/27 09:05:34;;;;;;;0.70;0.70;;;8.40;99.90;;;;;;4984020;28;20035;-76
2021/03/27 09:08:31;;;;;;;4.15;2.97;;;8.30;99.90;;;;;;4982329;28;20508;-75
2021/03/27 09:11:22;;;;;;;1.27;0.90;;;8.20;99.90;;;;;;4973098;28;20029;-75
2021/03/27 09:14:15;;;;;;;1.42;0.90;;;8.10;99.90;;;;;;4986438;28;20114;-76
2021/03/27 09:17:07;;;;;;;2.15;0.95;;;8.10;99.90;;;;;;4978121;28;20048;-76
2021/03/27 09:19:53;;;;;;;1.15;1.05;;;8.00;99.90;;;;;;4970273;28;20477;-77
2021/03/27 09:22:44;;;;;;;2.03;1.10;;;8.10;99.90;;;;;;4981606;28;20062;-76
2021/03/27 09:25:28;;;;;;;3.42;1.20;;;8.00;99.90;;;;;;4978358;28;20034;-79
2021/03/27 09:28:31;;;;;;;1.58;1.15;;;8.10;99.90;;;;;;4975834;28;20105;-75
2021/03/27 09:30:56;;;;;;;1.33;1.20;;;8.10;99.90;;;;;;4979374;28;20030;-75
2021/03/27 09:33:35;;;;;;;1.42;1.00;;;8.20;99.90;;;;;;4973234;28;20050;-75
2021/03/27 09:36:39;;;;;;;2.47;1.40;;;8.20;99.90;;;;;;4984755;28;20042;-73
2021/03/27 09:39:14;;;;;;;2.63;1.20;;;8.30;99.90;;;;;;4981576;28;20038;-75
2021/03/27 09:42:07;;;;;;;1.38;1.17;;;8.40;99.90;;;;;;4970029;28;20026;-74
2021/03/27 09:44:47;;;;;;;2.35;1.33;;;8.50;99.90;;;;;;4979031;28;20034;-75
2021/03/27 09:47:27;;;;;;;3.00;1.05;;;8.50;99.90;;;;;;4974559;28;20022;-75
2021/03/27 09:50:14;;;;;;;1.93;1.17;;;8.40;99.90;;;;;;4981003;28;20439;-74
2021/03/27 09:53:21;;;;;;;1.95;1.33;;;8.40;99.90;;;;;;4961650;28;20572;-76
2021/03/27 09:55:56;;;;;;;1.15;1.02;;;8.50;99.90;;;;;;4975859;28;20703;-75
2021/03/27 09:58:45;;;;;;;1.95;1.35;;;8.50;99.90;;;;;;4978117;28;20034;-74
2021/03/27 10:01:33;;;;;;;1.13;1.02;;;8.60;99.90;;;;;;4978959;28;20027;-75
2021/03/27 10:04:20;;;;;;;1.50;1.20;;;8.70;99.90;;;;;;4966705;28;20038;-75
2021/03/27 10:07:05;;;;;;;1.92;1.38;;;8.60;99.90;;;;;;4984053;28;20030;-75
2021/03/27 10:09:43;;;;;;;1.25;1.15;;;8.60;99.90;;;;;;4984926;28;20502;-74
2021/03/27 10:12:19;;;;;;;1.33;1.15;;;8.70;99.90;;;;;;4978921;28;20030;-75
2021/03/27 10:14:54;;;;;;;1.80;1.30;;;9.00;99.90;;;;;;4979747;28;20038;-75
2021/03/27 10:17:43;;;;;;;1.90;1.27;;;9.10;99.90;;;;;;4975634;28;20074;-74
2021/03/27 10:20:28;;;;;;;1.20;1.08;;;9.10;99.90;;;;;;4976535;28;20404;-75
2021/03/27 10:23:05;;;;;;;2.80;1.80;;;9.10;99.90;;;;;;4979158;28;20034;-76
2021/03/27 10:25:39;;;;;;;2.47;1.55;;;9.10;99.90;;;;;;4984085;28;20163;-75
2021/03/27 10:28:21;;;;;;;4.65;1.50;;;9.30;99.90;;;;;;4979115;28;20445;-74
2021/03/27 10:31:05;;;;;;;3.65;2.03;;;9.60;99.90;;;;;;4973951;28;20136;-75
2021/03/27 10:34:08;;;;;;;3.55;2.00;;;10.10;99.90;;;;;;4984773;28;20046;-82
2021/03/27 10:36:59;;;;;;;2.63;1.60;;;10.30;99.90;;;;;;4972011;28;20030;-79
2021/03/27 10:39:52;;;;;;;4.15;2.00;;;10.20;99.90;;;;;;4974429;28;20030;-79
2021/03/27 10:42:37;;;;;;;2.60;2.05;;;9.90;99.90;;;;;;4981766;28;20034;-85
2021/03/27 10:45:17;;;;;;;3.13;2.10;;;9.80;99.90;;;;;;4981308;28;20037;-74
2021/03/27 10:47:48;;;;;;;2.67;2.08;;;9.60;99.90;;;;;;4988153;28;20662;-77
2021/03/27 10:50:33;;;;;;;;;;;9.50;99.90;;;;;;4986469;28;20049;-71
2021/03/27 10:53:15;;;;;;;1.88;0.82;;;8.80;99.90;;;;;;4967726;28;19941;-73
2021/03/27 10:55:59;;;;;;;;;;;7.40;99.90;;;;;;4982462;28;20026;-73
2021/03/27 10:59:07;;;;;;;2.15;0.80;;;6.70;99.90;;;;;;4983390;28;19917;-74
2021/03/27 11:02:00;;;;;;;4.55;1.00;;;6.30;99.90;;;;;;4969353;28;20022;-72
2021/03/27 11:05:01;;;;;;;2.65;1.05;;;6.50;99.90;;;;;;4979638;28;20027;-70
2021/03/27 11:08:00;;;;;;;1.55;1.00;;;6.90;99.90;;;;;;4984853;28;20033;-73
2021/03/27 11:10:52;;;;;;;2.13;1.38;;;7.60;99.90;;;;;;4983038;28;20034;-73
2021/03/27 11:13:51;;;;;;;1.38;1.05;;;7.90;99.90;;;;;;4985690;28;20045;-72
2021/03/27 11:16:37;;;;;;;7.35;1.52;;;8.00;99.90;;;;;;4978872;28;20023;-73
2021/03/27 11:19:20;;;;;;;3.00;1.10;;;8.40;99.90;;;;;;4977803;28;20113;-73
2021/03/27 11:22:04;;;;;;;5.20;2.25;;;8.80;99.90;;;;;;4979499;28;20397;-73
2021/03/27 11:24:54;;;;;;;2.75;1.70;;;9.20;99.90;;;;;;4976091;28;20109;-73
2021/03/27 11:27:58;;;;;;;7.65;1.77;;;9.50;99.90;;;;;;4983476;28;20070;-73
2021/03/27 11:30:36;;;;;;;6.93;2.17;;;10.00;99.90;;;;;;4983708;28;20023;-72
2021/03/27 11:33:24;;;;;;;3.63;1.90;;;10.30;99.90;;;;;;4980431;28;20050;-72
2021/03/27 11:36:15;;;;;;;2.13;1.63;;;10.60;99.90;;;;;;4976823;28;20045;-73
2021/03/27 11:38:46;;;;;;;5.50;2.15;;;11.00;99.90;;;;;;4979953;28;20018;-73
2021/03/27 11:41:29;;;;;;;4.75;2.20;;;11.40;99.90;;;;;;4966565;28;20460;-74
2021/03/27 11:44:19;;;;;;;3.20;1.80;;;12.00;99.90;;;;;;4968658;28;20276;-73
2021/03/27 11:46:53;;;;;;;3.08;1.92;;;12.00;99.90;;;;;;4977987;28;20038;-74
2021/03/27 11:49:39;;;;;;;5.47;2.05;;;12.40;99.90;;;;;;4979716;28;20072;-74
2021/03/27 11:52:35;;;;;;;7.82;3.30;;;12.00;99.90;;;;;;4967031;28;20030;-73
2021/03/27 11:55:25;;;;;;;6.22;3.40;;;11.40;99.90;;;;;;4981637;28;20038;-73
2021/03/27 11:57:59;;;;;;;4.10;2.20;;;10.90;99.90;;;;;;4983264;28;20489;-73
2021/03/27 12:01:03;;;;;;;4.90;2.50;;;10.50;99.90;;;;;;4986171;28;20034;-73
2021/03/27 12:03:53;;;;;;;3.38;2.05;;;10.90;99.90;;;;;;4980393;28;20026;-74
2021/03/27 12:06:40;;;;;;;6.32;2.33;;;11.70;99.90;;;;;;4982634;28;20026;-74
2021/03/27 12:09:17;;;;;;;5.30;2.03;;;12.90;99.90;;;;;;4982927;28;20027;-74
2021/03/27 12:12:04;;;;;;;4.97;2.38;;;13.80;96.90;;;;;;4986460;28;20027;-73
2021/03/27 12:14:43;;;;;;;5.47;2.13;;;13.80;91.40;;;;;;4979917;28;20045;-73
2021/03/27 12:17:25;;;;;;;6.72;2.00;;;14.50;87.80;;;;;;4979655;28;20042;-73
2021/03/27 12:20:05;;;;;;;3.60;2.30;;;15.10;81.70;;;;;;4975388;28;20023;-73
2021/03/27 12:22:38;;;;;;;3.50;2.10;;;15.70;76.70;;;;;;4968222;28;20035;-74
2021/03/27 12:25:23;;;;;;;3.47;2.05;;;16.10;68.60;;;;;;4981965;28;20032;-74
2021/03/27 12:28:21;;;;;;;2.53;2.30;;;16.60;65.30;;;;;;4985279;28;20019;-74
2021/03/27 12:31:01;;;;;;;4.90;2.38;;;16.50;63.30;;;;;;4982175;28;20031;-74
2021/03/27 12:33:47;;;;;;;6.75;2.75;;;15.70;60.90;;;;;;4984578;28;20046;-74
2021/03/27 12:36:24;;;;;;;2.92;2.10;;;15.60;69.60;;;;;;4983823;28;20104;-73
2021/03/27 12:39:21;;;;;;;5.70;2.33;;;15.40;60.80;;;;;;4980106;28;20026;-73
2021/03/27 12:42:29;;;;;;;5.25;2.50;;;14.60;63.20;;;;;;4986894;28;20034;-73
2021/03/27 12:44:59;;;;;;;6.35;2.40;;;13.40;63.90;;;;;;4985219;28;20394;-74
2021/03/27 12:47:36;;;;;;;3.67;2.38;;;12.70;67.90;;;;;;4977687;28;20022;-73
2021/03/27 12:50:22;;;;;;;4.85;2.25;;;12.30;71.90;;;;;;4977628;28;20401;-73
2021/03/27 12:53:18;;;;;;;4.53;2.38;;;12.00;73.00;;;;;;4981102;28;20597;-74
2021/03/27 12:56:01;;;;;;;6.40;2.30;;;11.80;74.00;;;;;;4971809;28;20041;-73
2021/03/27 12:58:40;;;;;;;4.88;2.22;;;11.60;78.60;;;;;;4975032;28;20390;-73
2021/03/27 13:01:11;;;;;;;3.63;1.83;;;11.20;75.70;;;;;;4979304;28;20034;-73
2021/03/27 13:03:54;;;;;;;1.83;1.42;;;10.80;80.00;;;;;;4983661;28;20046;-74
2021/03/27 13:06:53;;;;;;;7.70;1.42;;;10.50;85.40;;;;;;4977264;28;20039;-74
2021/03/27 13:09:25;;;;;;;5.65;1.80;;;10.00;93.90;;;;;;4973165;28;20014;-73
2021/03/27 13:12:05;;;;;;;6.03;1.52;;;8.90;99.90;;;;;;4984384;28;20030;-73
2021/03/27 13:14:39;;;;;;;1.70;1.35;;;8.30;99.90;;;;;;4978545;28;20034;-73
2021/03/27 13:17:13;;;;;;;2.50;1.80;;;8.00;99.90;;;;;;4982890;28;20485;-73
2021/03/27 13:19:45;;;;;;;2.72;1.48;;;8.70;99.90;;;;;;4984264;28;20045;-73
2021/03/27 13:22:26;;;;;;;2.67;1.27;;;9.50;99.90;;;;;;4981447;28;20107;-74
2021/03/27 13:25:28;;;;;;;4.63;1.13;;;9.80;99.90;;;;;;4985655;28;20398;-73
2021/03/27 13:28:03;;;;;;;3.60;1.25;;;9.70;99.90;;;;;;4981449;28;20125;-73
2021/03/27 13:30:31;;;;;;;2.17;1.35;;;9.80;99.90;;;;;;4977219;28;20019;-73
2021/03/27 13:33:06;;;;;;;2.40;1.20;;;9.80;99.90;;;;;;4979207;28;20042;-74
2021/03/27 13:35:50;;;;;;;2.03;1.30;;;9.80;99.90;;;;;;4981506;28;20030;-73
2021/03/27 13:38:26;;;;;;;4.03;1.40;;;9.60;99.90;;;;;;4970656;28;20624;-73
2021/03/27 13:40:54;;;;;;;1.67;1.30;;;9.50;99.90;;;;;;4984336;28;20042;-73
2021/03/27 13:43:39;;;;;;;1.00;0.85;;;9.60;99.90;;;;;;4984574;28;20054;-74
2021/03/27 13:46:23;;;;;;;1.23;0.93;;;10.20;99.90;;;;;;4964579;28;20070;-74
2021/03/27 13:49:04;;;;;;;2.70;1.00;;;11.40;99.90;;;;;;4982424;28;20030;-73
2021/03/27 13:51:58;;;;;;;1.50;0.90;;;12.80;98.20;;;;;;4983556;28;20022;-73
2021/03/27 13:54:29;;;;;;;1.13;0.80;;;12.90;88.70;;;;;;4982704;28;20030;-73
2021/03/27 13:57:19;;;;;;;1.73;1.00;;;12.20;92.40;;;;;;4981648;28;20621;-74
2021/03/27 14:00:11;;;;;;;3.72;1.70;;;11.70;93.90;;;;;;4960755;28;20030;-73
2021/03/27 14:03:01;;;;;;;1.63;1.30;;;11.40;94.60;;;;;;4977538;28;20034;-73
2021/03/27 14:05:41;;;;;;;3.45;1.50;;;11.20;96.60;;;;;;4980899;28;20104;-74
2021/03/27 14:08:32;;;;;;;1.88;1.30;;;10.90;97.20;;;;;;4963686;28;20445;-73
2021/03/27 14:11:20;;;;;;;1.98;1.30;;;10.40;96.90;;;;;;4981694;28;20026;-73
2021/03/27 14:13:54;;;;;;;3.38;1.13;;;9.90;99.60;;;;;;4980753;28;20054;-73
2021/03/27 14:16:38;;;;;;;4.07;1.70;;;9.60;99.90;;;;;;4987389;28;20105;-73
2021/03/27 14:19:25;;;;;;;1.30;1.10;;;9.30;99.90;;;;;;4985753;28;20125;-73